Time;durP1;ratioP1;P1;durP2;ratioP2;P2;SDS_P1;SDS_P2;PMS_P1;PMS_P2;Temp;Humidity;BMP_temperature;BMP_pressure;BME280_temperature;BME280_humidity;BME280_pressure;Samples;Min_cycle;Max_cycle;Signal;HPM_P1;HPM_P2
2022/02/25 00:00:06;;;;;;;0.65;0.08;;;;;;;20.45;46.32;99323.19;5053125;28;20143;-57
2022/02/25 00:02:32;;;;;;;0.20;0.10;;;;;;;20.43;46.49;99319.84;5053553;28;20108;-58
2022/02/25 00:04:57;;;;;;;0.10;0.00;;;;;;;20.41;46.29;99317.34;5053107;28;20144;-58
2022/02/25 00:07:22;;;;;;;1.30;0.30;;;;;;;20.36;46.50;99316.31;5053446;28;20025;-58
2022/02/25 00:09:48;;;;;;;0.10;0.10;;;;;;;20.34;45.99;99321.16;5053181;28;20021;-58
2022/02/25 00:12:13;;;;;;;0.28;0.00;;;;;;;20.30;46.09;99317.19;5053007;28;20029;-58
2022/02/25 00:14:38;;;;;;;0.20;0.05;;;;;;;20.48;48.00;99317.28;5053159;28;20107;-57
2022/02/25 00:17:04;;;;;;;0.57;0.20;;;;;;;20.78;49.80;99316.63;5052836;28;20032;-57
2022/02/25 00:19:29;;;;;;;0.10;0.03;;;;;;;20.89;51.50;99313.19;5053180;28;20478;-57
2022/02/25 00:21:55;;;;;;;1.45;0.00;;;;;;;20.91;52.65;99311.91;5052763;28;20120;-58
2022/02/25 00:24:20;;;;;;;0.52;0.00;;;;;;;20.95;53.27;99307.66;5053047;28;20212;-57
2022/02/25 00:26:45;;;;;;;0.40;0.03;;;;;;;21.00;54.34;99304.25;5052830;28;20028;-57
2022/02/25 00:29:11;;;;;;;0.38;0.20;;;;;;;21.07;54.64;99302.28;5051652;28;20314;-58
2022/02/25 00:31:36;;;;;;;0.50;0.10;;;;;;;21.07;54.91;99298.72;5052881;28;20039;-57
2022/02/25 00:34:02;;;;;;;0.93;0.20;;;;;;;21.12;55.38;99294.22;5052571;28;20108;-58
2022/02/25 00:36:27;;;;;;;0.20;0.00;;;;;;;21.14;55.21;99294.84;5052866;28;20021;-58
2022/02/25 00:38:53;;;;;;;0.52;0.00;;;;;;;21.21;56.73;99290.16;5052819;28;20372;-58
2022/02/25 00:41:18;;;;;;;0.47;0.10;;;;;;;21.22;56.75;99297.28;5053100;28;20437;-58
2022/02/25 00:43:44;;;;;;;0.73;0.10;;;;;;;21.28;57.29;99296.41;5052627;28;20026;-58
2022/02/25 00:46:10;;;;;;;0.00;0.00;;;;;;;21.27;57.71;99293.91;5052540;28;20116;-57
2022/02/25 00:48:35;;;;;;;0.38;0.25;;;;;;;21.34;57.08;99293.84;5052640;28;20031;-58
2022/02/25 00:51:01;;;;;;;0.10;0.10;;;;;;;21.31;56.43;99290.47;5052523;28;20372;-57
2022/02/25 00:53:27;;;;;;;1.35;0.20;;;;;;;21.36;57.13;99289.81;5052559;28;20418;-58
2022/02/25 00:55:52;;;;;;;0.30;0.10;;;;;;;21.40;57.61;99287.44;5052061;28;20033;-57
2022/02/25 00:58:19;;;;;;;0.30;0.10;;;;;;;21.36;55.73;99275.31;5052255;28;20388;-57
2022/02/25 01:00:44;;;;;;;0.10;0.10;;;;;;;21.38;56.60;99278.66;5052357;28;20526;-58
2022/02/25 01:03:10;;;;;;;0.93;0.10;;;;;;;21.43;57.40;99281.53;5052251;28;20032;-57
2022/02/25 01:05:35;;;;;;;0.30;0.10;;;;;;;21.49;56.36;99281.44;5051904;28;20061;-58
2022/02/25 01:08:08;;;;;;;0.30;0.20;;;;;;;21.47;56.47;99289.03;5052155;28;20029;-57
2022/02/25 01:10:35;;;;;;;0.55;0.10;;;;;;;21.48;56.20;99273.44;5052421;28;20108;-58
2022/02/25 01:13:00;;;;;;;0.10;0.10;;;;;;;21.51;56.37;99264.81;5050870;28;20051;-58
2022/02/25 01:15:26;;;;;;;0.10;0.10;;;;;;;21.51;55.51;99264.81;5052373;28;20464;-57
2022/02/25 01:17:51;;;;;;;0.32;0.10;;;;;;;21.54;55.56;99261.63;5051856;28;20081;-57
2022/02/25 01:20:17;;;;;;;1.48;0.28;;;;;;;21.59;55.28;99256.28;5052396;28;20037;-57
2022/02/25 01:22:44;;;;;;;0.08;0.00;;;;;;;21.58;55.54;99257.34;5052205;28;20035;-57
2022/02/25 01:25:11;;;;;;;0.15;0.10;;;;;;;21.60;54.98;99244.28;5051934;28;20021;-57
2022/02/25 01:27:36;;;;;;;0.55;0.10;;;;;;;21.61;54.79;99235.84;5051936;28;20359;-58
2022/02/25 01:30:04;;;;;;;0.45;0.20;;;;;;;21.63;54.42;99221.94;5051886;28;20060;-57
2022/02/25 01:32:29;;;;;;;0.45;0.30;;;;;;;21.66;54.63;99226.94;5052158;28;20103;-58
2022/02/25 01:34:55;;;;;;;0.55;0.08;;;;;;;21.66;54.70;99226.94;5050670;28;20119;-57
2022/02/25 01:37:21;;;;;;;0.05;0.00;;;;;;;21.70;53.89;99233.63;5052109;28;20032;-58
2022/02/25 01:39:46;;;;;;;1.80;0.55;;;;;;;21.70;53.72;99233.63;5051939;28;20075;-58
2022/02/25 01:42:12;;;;;;;0.10;0.10;;;;;;;21.71;53.62;99238.03;5051891;28;20037;-57
2022/02/25 01:44:40;;;;;;;0.75;0.10;;;;;;;21.74;53.08;99243.03;5052064;28;20095;-57
2022/02/25 01:47:05;;;;;;;0.75;0.30;;;;;;;21.75;53.71;99243.88;5051871;28;20063;-57
2022/02/25 01:49:31;;;;;;;0.82;0.30;;;;;;;21.75;53.62;99235.66;5052059;28;20432;-58
2022/02/25 01:52:02;;;;;;;0.28;0.10;;;;;;;21.74;53.05;99240.31;5051683;28;20052;-57
2022/02/25 01:54:29;;;;;;;1.10;0.13;;;;;;;21.78;52.90;99236.03;5051416;28;20120;-57
2022/02/25 01:56:55;;;;;;;0.32;0.10;;;;;;;21.76;52.78;99232.69;5051466;28;20060;-57
2022/02/25 01:59:22;;;;;;;1.05;0.40;;;;;;;21.80;52.45;99233.06;5051920;28;20438;-57
2022/02/25 02:01:47;;;;;;;0.20;0.00;;;;;;;21.78;52.58;99230.56;5051721;28;20028;-58
2022/02/25 02:04:13;;;;;;;0.20;0.10;;;;;;;21.79;52.93;99225.94;5051557;28;20476;-57
2022/02/25 02:06:39;;;;;;;0.55;0.08;;;;;;;21.81;52.73;99227.34;5051836;28;20373;-57
2022/02/25 02:09:06;;;;;;;0.60;0.13;;;;;;;21.79;52.82;99221.28;5051574;28;20502;-57
2022/02/25 02:11:33;;;;;;;0.20;0.08;;;;;;;21.81;52.24;99213.69;5051804;28;20029;-57
2022/02/25 02:14:00;;;;;;;2.00;0.17;;;;;;;21.81;52.27;99210.94;5051381;28;20025;-58
2022/02/25 02:16:26;;;;;;;0.75;0.08;;;;;;;21.82;52.10;99204.41;5054345;28;20120;-57
2022/02/25 02:18:52;;;;;;;0.40;0.10;;;;;;;21.85;52.13;99203.13;5055114;28;20021;-58
2022/02/25 02:21:19;;;;;;;1.55;0.00;;;;;;;21.83;51.99;99207.97;5055438;28;20425;-57
2022/02/25 02:23:44;;;;;;;0.22;0.00;;;;;;;21.84;51.79;99213.25;5054807;28;20104;-58
2022/02/25 02:26:09;;;;;;;0.60;0.00;;;;;;;21.81;51.63;99210.94;5054112;28;20115;-58
2022/02/25 02:28:35;;;;;;;0.47;0.10;;;;;;;21.85;51.90;99214.06;5054666;28;20021;-58
2022/02/25 02:31:00;;;;;;;0.28;0.08;;;;;;;21.85;51.15;99220.38;5055127;28;20472;-58
2022/02/25 02:33:25;;;;;;;0.65;0.20;;;;;;;21.87;51.64;99212.78;5055214;28;20380;-57
2022/02/25 02:35:51;;;;;;;1.40;0.10;;;;;;;21.87;51.33;99228.34;5054983;28;20067;-58
2022/02/25 02:38:16;;;;;;;0.10;0.00;;;;;;;21.86;51.68;99216.56;5054866;28;20025;-57
2022/02/25 02:40:42;;;;;;;0.47;0.10;;;;;;;21.85;51.24;99216.81;5055275;28;20043;-58
2022/02/25 02:43:10;;;;;;;0.85;0.28;;;;;;;21.86;51.01;99213.84;5054944;28;20028;-57
2022/02/25 02:45:36;;;;;;;0.10;0.00;;;;;;;21.86;51.65;99216.56;5054930;28;20029;-58
2022/02/25 02:48:03;;;;;;;0.00;0.00;;;;;;;21.87;50.75;99218.25;5054675;28;20243;-57
2022/02/25 02:50:28;;;;;;;0.25;0.10;;;;;;;21.88;51.32;99219.91;5054789;28;20450;-58
2022/02/25 02:52:53;;;;;;;0.38;0.10;;;;;;;21.87;51.25;99222.88;5054152;28;20044;-58
2022/02/25 02:55:18;;;;;;;0.10;0.00;;;;;;;21.88;50.93;99214.44;5055160;28;20013;-57
2022/02/25 02:57:44;;;;;;;0.10;0.10;;;;;;;21.87;51.29;99225.63;5054545;28;20059;-58
2022/02/25 03:00:10;;;;;;;0.43;0.10;;;;;;;21.86;51.18;99222.03;5054485;28;20017;-57
2022/02/25 03:02:36;;;;;;;0.43;0.10;;;;;;;21.87;51.53;99223.72;5054647;28;20108;-58
2022/02/25 03:05:01;;;;;;;0.30;0.08;;;;;;;21.89;51.40;99220.75;5054363;28;20171;-58
2022/02/25 03:07:27;;;;;;;0.20;0.10;;;;;;;21.89;51.11;99218.84;5054597;28;20021;-57
2022/02/25 03:09:52;;;;;;;1.02;0.10;;;;;;;21.88;51.00;99236.31;5054305;28;20406;-58
2022/02/25 03:12:18;;;;;;;0.30;0.10;;;;;;;21.89;51.51;99237.16;5054377;28;20027;-58
2022/02/25 03:14:43;;;;;;;1.13;0.05;;;;;;;21.89;51.45;99242.63;5054370;28;20338;-58
2022/02/25 03:17:11;;;;;;;0.45;0.10;;;;;;;21.90;51.29;99242.38;5054186;28;20021;-58
2022/02/25 03:19:36;;;;;;;0.50;0.10;;;;;;;21.91;50.99;99235.84;5054294;28;20025;-57
2022/02/25 03:22:02;;;;;;;0.65;0.05;;;;;;;21.86;51.31;99238.47;5052450;28;20035;-58
2022/02/25 03:24:28;;;;;;;0.20;0.17;;;;;;;21.89;51.34;99237.97;5054113;28;20041;-57
2022/02/25 03:26:53;;;;;;;0.10;0.00;;;;;;;21.90;50.63;99244.28;5053324;28;20403;-57
2022/02/25 03:29:18;;;;;;;0.30;0.10;;;;;;;21.89;50.63;99245.34;5054135;28;20368;-58
2022/02/25 03:31:44;;;;;;;0.28;0.20;;;;;;;21.91;51.03;99246.78;5053961;28;20029;-58
2022/02/25 03:34:09;;;;;;;0.20;0.10;;;;;;;21.93;51.55;99233.72;5054078;28;20023;-57
2022/02/25 03:36:34;;;;;;;0.30;0.20;;;;;;;21.91;50.50;99233.13;5053962;28;20032;-58
2022/02/25 03:39:00;;;;;;;1.45;0.20;;;;;;;21.90;50.99;99228.72;5053682;28;20059;-57
2022/02/25 03:41:25;;;;;;;0.10;0.10;;;;;;;21.91;50.45;99224.91;5053863;28;20036;-57
2022/02/25 03:43:52;;;;;;;0.73;0.00;;;;;;;21.89;50.60;99221.56;5053680;28;20024;-57
2022/02/25 03:46:17;;;;;;;1.27;0.30;;;;;;;21.89;50.24;99216.09;5053669;28;20025;-57
2022/02/25 03:48:42;;;;;;;0.60;0.10;;;;;;;21.92;51.97;99215.63;5052434;28;20514;-58
2022/02/25 03:51:08;;;;;;;0.17;0.10;;;;;;;21.91;50.64;99196.72;5053254;28;20252;-57
2022/02/25 03:53:33;;;;;;;0.28;0.13;;;;;;;21.89;50.38;99188.75;5053261;28;20087;-57
2022/02/25 03:55:58;;;;;;;0.60;0.20;;;;;;;21.91;50.20;99153.78;5053585;28;20025;-57
2022/02/25 03:58:23;;;;;;;0.20;0.10;;;;;;;21.90;50.73;99264.28;5053436;28;20021;-58
2022/02/25 04:00:49;;;;;;;0.15;0.00;;;;;;;21.92;50.19;99198.38;5053321;28;20020;-58
2022/02/25 04:03:14;;;;;;;0.32;0.10;;;;;;;21.91;50.09;99203.03;5052994;28;20052;-58
2022/02/25 04:05:39;;;;;;;1.08;0.13;;;;;;;21.92;50.67;99209.31;5053134;28;20060;-57
2022/02/25 04:08:04;;;;;;;0.10;0.10;;;;;;;21.91;51.12;99200.28;5052968;28;20021;-58
2022/02/25 04:10:32;;;;;;;0.80;0.20;;;;;;;21.92;50.69;99192.91;5053311;28;20025;-58
2022/02/25 04:12:58;;;;;;;0.40;0.15;;;;;;;21.90;50.35;99179.47;5053000;28;20407;-57
2022/02/25 04:15:23;;;;;;;0.10;0.10;;;;;;;21.90;50.01;99182.19;5053299;28;20111;-58
2022/02/25 04:17:48;;;;;;;0.45;0.00;;;;;;;21.91;49.86;99186.59;5052969;28;20109;-57
2022/02/25 04:20:14;;;;;;;0.70;0.00;;;;;;;21.90;50.21;99184.09;5052890;28;20514;-57
2022/02/25 04:22:40;;;;;;;0.35;0.00;;;;;;;21.91;49.53;99172.94;5052962;28;20032;-57
2022/02/25 04:25:06;;;;;;;1.33;0.47;;;;;;;21.91;49.77;99170.19;5052910;28;20021;-58
2022/02/25 04:27:31;;;;;;;0.70;0.08;;;;;;;21.92;50.10;99169.13;5053054;28;20439;-58
2022/02/25 04:29:57;;;;;;;0.68;0.00;;;;;;;21.89;49.41;99155.91;5052647;28;20111;-58
2022/02/25 04:32:22;;;;;;;0.30;0.20;;;;;;;21.90;49.27;99163.06;5053000;28;20037;-58
2022/02/25 04:34:48;;;;;;;0.57;0.08;;;;;;;21.91;49.57;99159.25;5052775;28;20029;-57
2022/02/25 04:37:14;;;;;;;0.10;0.10;;;;;;;21.90;50.11;99159.47;5052742;28;20029;-58
2022/02/25 04:39:39;;;;;;;0.55;0.00;;;;;;;21.91;49.76;99163.88;5051967;28;20028;-58
2022/02/25 04:42:05;;;;;;;0.43;0.10;;;;;;;21.91;49.52;99167.47;5052385;28;20053;-57
2022/02/25 04:44:30;;;;;;;0.38;0.10;;;;;;;21.93;50.28;99161.75;5052835;28;20055;-57
2022/02/25 04:46:55;;;;;;;0.00;0.00;;;;;;;21.91;50.25;99164.72;5052398;28;20028;-58
2022/02/25 04:49:21;;;;;;;0.30;0.10;;;;;;;21.91;50.45;99164.72;5052699;28;20463;-58
2022/02/25 04:51:46;;;;;;;0.90;0.20;;;;;;;21.91;49.44;99186.59;5051047;28;20020;-58
2022/02/25 04:54:11;;;;;;;0.45;0.13;;;;;;;21.93;50.05;99189.94;5052145;28;20124;-58
2022/02/25 04:56:37;;;;;;;0.80;0.10;;;;;;;21.92;50.24;99198.38;5052462;28;20108;-57
2022/02/25 04:59:02;;;;;;;0.40;0.17;;;;;;;21.92;50.01;99198.38;5052007;28;20029;-58
2022/02/25 05:01:28;;;;;;;0.40;0.10;;;;;;;22.70;49.02;99178.13;5052594;28;20109;-58
2022/02/25 05:03:53;;;;;;;0.20;0.00;;;;;;;23.38;46.93;99175.50;5052239;28;20487;-58
2022/02/25 05:06:19;;;;;;;0.03;0.00;;;;;;;23.59;47.20;99176.75;5052335;28;20025;-58
2022/02/25 05:08:44;;;;;;;0.73;0.20;;;;;;;23.76;46.54;99175.94;5052287;28;20136;-58
2022/02/25 05:11:10;;;;;;;1.42;0.00;;;;;;;23.84;46.01;99170.03;5052437;28;20025;-57
2022/02/25 05:13:35;;;;;;;0.20;0.05;;;;;;;23.97;45.43;99177.97;5052340;28;20021;-58
2022/02/25 05:21:28;;;;;;;0.35;0.03;;;;;;;24.25;45.12;99186.16;5052393;28;20032;-58
2022/02/25 05:23:53;;;;;;;0.68;0.08;;;;;;;24.30;44.70;99182.66;5051976;28;20025;-58
2022/02/25 05:26:19;;;;;;;0.00;0.00;;;;;;;24.37;44.32;99185.25;5052090;28;20353;-58
2022/02/25 05:28:44;;;;;;;0.10;0.10;;;;;;;24.39;43.74;99185.84;5052136;28;20024;-58
2022/02/25 05:31:10;;;;;;;0.20;0.10;;;;;;;24.47;43.35;99186.25;5052115;28;20478;-58
2022/02/25 05:33:35;;;;;;;0.45;0.20;;;;;;;24.48;43.39;99189.81;5052190;28;20477;-57
2022/02/25 05:36:00;;;;;;;0.22;0.03;;;;;;;24.52;43.86;99196.47;5051869;28;20510;-58
2022/02/25 05:38:26;;;;;;;1.55;0.20;;;;;;;24.56;43.42;99190.25;5051979;28;20535;-58
2022/02/25 05:40:51;;;;;;;1.27;0.00;;;;;;;24.57;43.11;99202.06;5051898;28;20582;-57
2022/02/25 05:43:17;;;;;;;1.35;0.75;;;;;;;24.62;43.41;99207.63;5052021;28;20029;-58
2022/02/25 05:45:42;;;;;;;1.20;0.30;;;;;;;24.65;42.88;99212.59;5052059;28;20029;-58
2022/02/25 05:48:08;;;;;;;0.00;0.00;;;;;;;24.71;42.25;99206.13;5052097;28;20013;-58
2022/02/25 05:50:33;;;;;;;0.40;0.00;;;;;;;24.71;42.39;99205.28;5053091;28;20222;-58
2022/02/25 05:52:58;;;;;;;1.27;0.10;;;;;;;24.75;42.37;99223.75;5055580;28;20158;-58
2022/02/25 05:55:24;;;;;;;0.20;0.15;;;;;;;24.76;42.76;99228.16;5056302;28;20032;-58
2022/02/25 05:57:51;;;;;;;0.03;0.00;;;;;;;24.79;42.14;99222.16;5055619;28;20456;-58
2022/02/25 06:00:18;;;;;;;0.57;0.00;;;;;;;24.78;42.01;99222.41;5055696;28;20032;-58
2022/02/25 06:02:45;;;;;;;0.73;0.10;;;;;;;24.81;42.32;99232.91;5055695;28;20098;-58
2022/02/25 06:05:11;;;;;;;1.10;0.20;;;;;;;24.85;41.34;99240.38;5055603;28;20025;-58
2022/02/25 06:07:36;;;;;;;0.10;0.10;;;;;;;24.83;41.64;99247.22;5055672;28;20086;-58
2022/02/25 06:10:03;;;;;;;0.20;0.10;;;;;;;24.91;42.03;99244.06;5055359;28;20479;-58
2022/02/25 06:12:28;;;;;;;2.72;0.43;;;;;;;24.88;41.72;99250.91;5055489;28;20115;-58
2022/02/25 06:14:53;;;;;;;0.63;0.00;;;;;;;24.95;41.57;99249.88;5055363;28;20111;-58
2022/02/25 06:17:19;;;;;;;0.08;0.08;;;;;;;24.94;41.12;99268.28;5055411;28;20025;-58
2022/02/25 06:19:44;;;;;;;0.20;0.10;;;;;;;24.94;40.73;99275.69;5055338;28;20021;-58
2022/02/25 06:22:09;;;;;;;1.55;0.10;;;;;;;24.96;41.31;99273.53;5054908;28;20033;-58
2022/02/25 06:24:35;;;;;;;0.45;0.00;;;;;;;24.95;40.70;99288.34;5055375;28;20025;-58
2022/02/25 06:27:00;;;;;;;0.90;0.20;;;;;;;25.00;41.00;99291.19;5054901;28;20282;-57
2022/02/25 06:29:25;;;;;;;0.15;0.00;;;;;;;24.99;41.25;99284.00;5055407;28;20032;-58
2022/02/25 06:31:51;;;;;;;0.00;0.00;;;;;;;25.05;40.29;99294.88;5055114;28;20028;-58
2022/02/25 06:34:16;;;;;;;0.00;0.00;;;;;;;25.05;40.97;99288.56;5055006;28;20029;-57
2022/02/25 06:36:41;;;;;;;0.50;0.10;;;;;;;25.05;40.31;99297.63;5055199;28;20057;-59
2022/02/25 06:39:08;;;;;;;0.55;0.10;;;;;;;25.01;40.88;99301.13;5054895;28;20020;-58
2022/02/25 06:41:34;;;;;;;0.45;0.10;;;;;;;25.07;40.37;99297.38;5055400;28;20021;-58
2022/02/25 06:43:59;;;;;;;0.25;0.00;;;;;;;25.12;40.85;99297.44;5053375;28;20455;-58
2022/02/25 06:46:24;;;;;;;0.38;0.00;;;;;;;25.09;39.96;99293.28;5055038;28;20060;-58
2022/02/25 06:48:50;;;;;;;0.70;0.00;;;;;;;25.11;39.84;99304.03;5054757;28;20025;-58
2022/02/25 06:51:15;;;;;;;0.00;0.00;;;;;;;25.10;39.81;99303.19;5054587;28;20476;-58
2022/02/25 06:53:41;;;;;;;0.30;0.10;;;;;;;25.15;39.53;99310.69;5054642;28;20136;-57
2022/02/25 06:56:07;;;;;;;1.08;0.00;;;;;;;25.21;39.88;99306.94;5054468;28;20028;-58
2022/02/25 06:58:34;;;;;;;0.35;0.00;;;;;;;25.16;39.38;99306.84;5053483;28;20120;-57
2022/02/25 07:00:59;;;;;;;0.05;0.03;;;;;;;25.18;40.24;99311.00;5054336;28;20353;-58
2022/02/25 07:03:25;;;;;;;1.30;0.00;;;;;;;25.16;39.38;99324.16;5053787;28;20116;-58
2022/02/25 07:05:50;;;;;;;0.10;0.00;;;;;;;25.16;39.32;99328.84;5054410;28;20039;-58
2022/02/25 07:08:15;;;;;;;2.65;0.60;;;;;;;25.18;39.65;99326.66;5054282;28;20027;-58
2022/02/25 07:10:41;;;;;;;0.55;0.00;;;;;;;25.19;39.82;99334.69;5054509;28;20021;-58
2022/02/25 07:13:08;;;;;;;0.47;0.10;;;;;;;25.18;39.71;99330.25;5054283;28;20476;-58
2022/02/25 07:15:34;;;;;;;0.93;0.00;;;;;;;25.18;39.85;99337.66;5054363;28;20210;-58
2022/02/25 07:18:00;;;;;;;1.10;0.10;;;;;;;25.22;39.60;99336.09;5052665;28;20332;-58
2022/02/25 07:20:27;;;;;;;1.20;0.00;;;;;;;25.22;39.88;99338.84;5054082;28;20502;-57
2022/02/25 07:22:53;;;;;;;0.85;0.10;;;;;;;25.21;39.64;99342.69;5054086;28;20037;-58
2022/02/25 07:25:18;;;;;;;0.60;0.25;;;;;;;25.20;39.42;99346.53;5054275;28;20029;-57
2022/02/25 07:27:44;;;;;;;0.28;0.20;;;;;;;25.14;39.51;99344.75;5054120;28;20131;-58
2022/02/25 07:30:11;;;;;;;1.30;0.25;;;;;;;25.23;39.46;99345.19;5053955;28;20021;-58
2022/02/25 07:32:37;;;;;;;0.17;0.00;;;;;;;25.27;39.07;99358.16;5054054;28;20116;-58
2022/02/25 07:35:04;;;;;;;0.20;0.00;;;;;;;25.19;38.52;99361.31;5053887;28;20590;-58
2022/02/25 07:37:29;;;;;;;0.13;0.00;;;;;;;25.23;39.48;99370.75;5053966;28;20104;-58
2022/02/25 07:39:55;;;;;;;0.52;0.13;;;;;;;25.28;39.00;99365.31;5053738;28;20052;-57
2022/02/25 07:42:21;;;;;;;0.40;0.10;;;;;;;25.30;39.56;99367.81;5053831;28;20070;-58
2022/02/25 07:44:47;;;;;;;0.22;0.10;;;;;;;25.31;39.70;99381.31;5053739;28;20518;-58
2022/02/25 07:47:12;;;;;;;0.57;0.00;;;;;;;25.28;39.03;99384.56;5053854;28;20052;-58
2022/02/25 07:49:37;;;;;;;0.30;0.00;;;;;;;25.36;39.09;99386.91;5052478;28;20024;-58
2022/02/25 07:52:03;;;;;;;0.50;0.10;;;;;;;25.30;38.71;99385.16;5053124;28;20037;-58
2022/02/25 07:54:31;;;;;;;0.13;0.10;;;;;;;25.30;39.47;99396.16;5053291;28;20407;-58
2022/02/25 07:56:57;;;;;;;0.32;0.32;;;;;;;25.34;38.92;99408.31;5053300;28;20040;-58
2022/02/25 07:59:22;;;;;;;0.30;0.00;;;;;;;25.29;39.28;99405.50;5053883;28;20266;-58
2022/02/25 08:01:47;;;;;;;0.35;0.10;;;;;;;25.33;39.15;99408.56;5053383;28;20033;-58
2022/02/25 08:04:12;;;;;;;0.38;0.00;;;;;;;25.29;39.25;99410.16;5053162;28;20021;-58
2022/02/25 08:06:38;;;;;;;1.55;0.10;;;;;;;25.27;39.38;99418.66;5053393;28;20029;-58
2022/02/25 08:09:03;;;;;;;1.35;0.00;;;;;;;25.33;39.22;99425.91;5053177;28;20020;-58
2022/02/25 08:11:29;;;;;;;1.10;0.20;;;;;;;25.34;38.76;99430.31;5053408;28;20066;-58
2022/02/25 08:13:54;;;;;;;0.30;0.00;;;;;;;25.39;38.92;99441.41;5052832;28;20365;-58
2022/02/25 08:16:21;;;;;;;0.43;0.15;;;;;;;25.39;38.68;99437.84;5053204;28;20053;-58
2022/02/25 08:18:47;;;;;;;0.10;0.10;;;;;;;25.25;39.54;99451.09;5053290;28;20021;-58
2022/02/25 08:21:12;;;;;;;0.10;0.10;;;;;;;25.39;38.96;99443.34;5052841;28;20120;-58
2022/02/25 08:23:37;;;;;;;0.10;0.00;;;;;;;25.28;38.83;99453.34;5053119;28;20032;-58
2022/02/25 08:26:03;;;;;;;0.38;0.10;;;;;;;25.33;39.18;99453.41;5052821;28;20056;-58
2022/02/25 08:28:28;;;;;;;0.40;0.13;;;;;;;25.36;38.53;99454.81;5052860;28;20017;-58
2022/02/25 08:30:53;;;;;;;0.88;0.00;;;;;;;25.34;39.11;99466.06;5051458;28;20029;-58
2022/02/25 08:33:18;;;;;;;0.30;0.10;;;;;;;25.32;38.81;99476.50;5052962;28;20035;-58
2022/02/25 08:35:44;;;;;;;0.00;0.00;;;;;;;25.39;38.78;99484.59;5053024;28;20369;-58
2022/02/25 08:38:10;;;;;;;1.17;0.10;;;;;;;25.35;38.81;99486.16;5052556;28;20025;-57
2022/02/25 08:40:37;;;;;;;2.58;0.10;;;;;;;25.41;38.79;99486.03;5052811;28;20407;-58
2022/02/25 08:43:03;;;;;;;0.20;0.20;;;;;;;25.38;38.45;99497.53;5052669;28;20486;-58
2022/02/25 08:45:29;;;;;;;0.00;0.00;;;;;;;25.28;38.87;99502.84;5052670;28;20037;-58
2022/02/25 08:47:55;;;;;;;0.20;0.10;;;;;;;25.37;38.34;99495.03;5052447;28;20028;-57
2022/02/25 08:50:21;;;;;;;0.20;0.00;;;;;;;25.49;38.73;99499.34;5052616;28;20054;-58
2022/02/25 08:52:51;;;;;;;0.10;0.00;;;;;;;25.44;38.86;99501.19;5052345;28;20507;-57
2022/02/25 08:55:18;;;;;;;0.30;0.00;;;;;;;25.36;37.75;99502.44;5052661;28;20451;-58
2022/02/25 08:57:44;;;;;;;0.40;0.00;;;;;;;25.41;38.40;99513.53;5052392;28;20116;-58
2022/02/25 09:00:12;;;;;;;0.20;0.00;;;;;;;25.39;38.14;99521.19;5052339;28;20025;-57
2022/02/25 09:02:39;;;;;;;0.82;0.00;;;;;;;25.44;38.43;99524.03;5052478;28;20064;-58
2022/02/25 09:05:06;;;;;;;0.60;0.00;;;;;;;25.57;38.61;99533.03;5052315;28;20070;-57
2022/02/25 09:07:32;;;;;;;0.43;0.10;;;;;;;25.41;37.71;99531.94;5052389;28;20063;-57
2022/02/25 09:09:58;;;;;;;0.63;0.03;;;;;;;25.50;38.72;99544.19;5052131;28;20410;-58
2022/02/25 09:12:23;;;;;;;0.00;0.00;;;;;;;25.54;38.22;99539.03;5052387;28;20040;-57
2022/02/25 09:14:49;;;;;;;0.30;0.20;;;;;;;25.49;37.95;99539.78;5052239;28;20040;-58
2022/02/25 09:17:14;;;;;;;1.00;0.10;;;;;;;25.38;37.76;99540.72;5052211;28;20017;-58
2022/02/25 09:19:40;;;;;;;0.20;0.00;;;;;;;25.30;38.12;99544.69;5052312;28;20029;-57
2022/02/25 09:22:06;;;;;;;0.35;0.10;;;;;;;25.44;38.52;99548.78;5051549;28;20070;-58
2022/02/25 09:24:33;;;;;;;0.20;0.03;;;;;;;25.43;38.27;99547.13;5053089;28;20108;-58
2022/02/25 09:26:58;;;;;;;0.10;0.10;;;;;;;25.43;37.86;99549.88;5058526;28;20036;-58
2022/02/25 09:29:23;;;;;;;0.55;0.00;;;;;;;25.49;37.97;99562.63;5057609;28;20020;-57
2022/02/25 09:31:49;;;;;;;0.28;0.00;;;;;;;25.40;38.53;99572.38;5058001;28;20033;-58
2022/02/25 09:34:14;;;;;;;0.15;0.00;;;;;;;25.51;37.96;99576.13;5058466;28;20055;-58
2022/02/25 09:36:39;;;;;;;0.17;0.00;;;;;;;25.44;37.88;99576.28;5058700;28;20064;-58
2022/02/25 09:39:05;;;;;;;1.35;0.43;;;;;;;25.52;38.47;99579.72;5058464;28;20394;-57
2022/02/25 09:41:31;;;;;;;1.15;0.05;;;;;;;25.64;38.28;99588.72;5058913;28;20100;-58
2022/02/25 09:43:56;;;;;;;0.50;0.10;;;;;;;25.39;38.14;99584.47;5058436;28;20029;-58
2022/02/25 09:46:22;;;;;;;0.03;0.03;;;;;;;25.38;38.09;99601.22;5058385;28;20035;-57
2022/02/25 09:48:47;;;;;;;1.10;0.10;;;;;;;25.34;38.38;99600.84;5058551;28;20020;-58
2022/02/25 09:51:13;;;;;;;0.68;0.03;;;;;;;25.40;38.33;99604.56;5058421;28;20025;-57
2022/02/25 09:53:38;;;;;;;0.50;0.10;;;;;;;25.53;37.78;99608.88;5058528;28;20037;-58
2022/02/25 09:56:04;;;;;;;0.10;0.10;;;;;;;25.62;37.54;99612.91;5058279;28;20025;-57
2022/02/25 09:58:30;;;;;;;0.10;0.00;;;;;;;25.31;37.48;99582.09;5058211;28;20045;-58
2022/02/25 10:00:56;;;;;;;0.35;0.20;;;;;;;25.40;38.00;99616.41;5057890;28;20476;-58
2022/02/25 10:03:21;;;;;;;0.57;0.10;;;;;;;25.38;38.03;99631.47;5058494;28;20035;-57
2022/02/25 10:05:48;;;;;;;0.28;0.00;;;;;;;25.41;37.56;99626.31;5058473;28;20107;-58
2022/02/25 10:08:22;;;;;;;0.13;0.00;;;;;;;25.57;37.59;99640.34;5058338;28;20048;-58
2022/02/25 10:10:50;;;;;;;1.05;0.10;;;;;;;25.71;38.17;99634.31;5058152;28;20029;-57
2022/02/25 10:13:19;;;;;;;0.00;0.00;;;;;;;25.52;37.67;99640.25;5058777;28;20472;-58
2022/02/25 10:15:46;;;;;;;0.32;0.10;;;;;;;25.41;38.06;99634.56;5058467;28;20036;-58
2022/02/25 10:18:22;;;;;;;0.32;0.10;;;;;;;25.50;38.05;99648.75;5054044;28;20355;-57
2022/02/25 10:20:48;;;;;;;1.25;0.08;;;;;;;25.52;37.51;99656.75;5049844;28;20020;-58
2022/02/25 10:23:23;;;;;;;0.88;0.13;;;;;;;25.52;37.56;99648.50;5078419;28;20482;-58
2022/02/25 10:25:50;;;;;;;0.73;0.00;;;;;;;25.63;38.28;99650.38;5076889;28;20097;-58
2022/02/25 10:28:26;;;;;;;0.47;0.13;;;;;;;25.74;37.46;99653.09;5058202;28;20476;-58
2022/02/25 10:30:53;;;;;;;1.15;0.22;;;;;;;24.96;40.56;99669.38;5057170;28;20060;-58
2022/02/25 10:33:32;;;;;;;0.20;0.10;;;;;;;24.47;41.18;99666.09;5058356;28;20559;-59
2022/02/25 10:35:57;;;;;;;1.00;0.10;;;;;;;24.34;40.24;99666.34;5057712;28;20040;-58
2022/02/25 10:38:23;;;;;;;0.55;0.03;;;;;;;24.22;39.45;99669.91;5053718;28;20160;-57
2022/02/25 10:40:51;;;;;;;0.80;0.30;;;;;;;24.10;39.24;99669.06;5054961;28;20021;-58
2022/02/25 10:43:19;;;;;;;0.75;0.10;;;;;;;24.06;38.45;99670.63;5055027;28;20460;-58
2022/02/25 10:45:51;;;;;;;0.65;0.10;;;;;;;24.03;38.95;99687.56;5054951;28;20025;-58
2022/02/25 10:48:21;;;;;;;0.20;0.00;;;;;;;23.96;38.31;99686.81;5054819;28;20029;-58
2022/02/25 10:50:55;;;;;;;2.40;0.30;;;;;;;23.91;37.74;99692.19;5053093;28;20025;-58
2022/02/25 10:53:39;;;;;;;;;;;;;;;23.86;37.97;99692.91;5052813;28;20409;-58
2022/02/25 10:56:13;;;;;;;0.55;0.10;;;;;;;23.83;38.03;99698.00;5043704;28;19920;-58
2022/02/25 10:58:41;;;;;;;0.43;0.13;;;;;;;23.82;37.52;99704.56;5054761;28;20025;-58
2022/02/25 11:01:06;;;;;;;0.60;0.10;;;;;;;23.87;37.20;99710.19;5054451;28;20036;-58
2022/02/25 11:03:32;;;;;;;0.50;0.10;;;;;;;23.87;37.56;99721.19;5054748;28;20028;-57
2022/02/25 11:05:58;;;;;;;0.10;0.05;;;;;;;23.82;37.68;99718.28;5043817;28;20029;-58
2022/02/25 11:08:23;;;;;;;0.30;0.10;;;;;;;23.84;37.32;99727.09;5038807;28;20041;-58
2022/02/25 11:10:48;;;;;;;0.98;0.17;;;;;;;23.87;38.09;99743.13;5047198;28;20040;-57
2022/02/25 11:13:15;;;;;;;0.52;0.10;;;;;;;23.89;37.34;99738.25;5053854;28;20139;-58
2022/02/25 11:15:43;;;;;;;0.70;0.10;;;;;;;23.84;37.51;99738.09;5057053;28;20029;-58
2022/02/25 11:18:09;;;;;;;0.63;0.15;;;;;;;23.82;37.73;99748.47;5054061;28;20419;-58
2022/02/25 11:20:36;;;;;;;0.00;0.00;;;;;;;23.82;37.47;99757.53;5055290;28;20037;-58
2022/02/25 11:23:10;;;;;;;0.32;0.00;;;;;;;23.93;37.67;99750.41;5050448;28;20071;-58
2022/02/25 11:25:38;;;;;;;0.75;0.52;;;;;;;23.92;38.60;99762.47;5054232;28;20049;-59
2022/02/25 11:28:05;;;;;;;0.10;0.10;;;;;;;23.92;38.46;99763.31;5053933;28;20120;-58
2022/02/25 11:30:38;;;;;;;0.75;0.10;;;;;;;23.99;37.49;99763.19;5053936;28;20031;-58
2022/02/25 11:33:13;;;;;;;0.30;0.23;;;;;;;23.95;38.32;99762.00;5053982;28;20202;-58